Terminal Aerodrome Forecast
Issued by NWS Melbourne, FL

Home | Current Version | Previous Version | Text Only | Print | Product List | Glossary On
Versions: 1 2 3 4 5 6 7 8 9 10 11 12
000
FTUS42 KMLB 042333
TAFMLB
TAF
KMLB 042333Z 0500/0524 15008KT P6SM FEW040
     FM050800 16003KT P6SM SCT008 BKN015
      TEMPO 0509/0513 BKN008
     FM051300 16009KT P6SM VCSH SCT015 BKN025=

USA.gov is the U.S. government's official web portal to all federal, state and local government web resources and services.